GEO756 EGAC-EGKK
Flight info
| Callsign | GEO756 |
|---|---|
| Flight time | N/A |
| Altitude | 31000 |
| Route | DUFFY L10 RINGA DCT BABGU DCT ETIGA DCT INKOB Q39 NOMSU UQ4 WAL L151 DISIT |
| Aircraft | B738/M-SDE2E3FGHIRWXY/LB1 |
Departure
| Time | 2026-05-06 08:38 |
|---|---|
| Airport | George Best Belfast City Airport (EGAC) |
Arrival
| Time | N/A |
|---|---|
| Airport | London Gatwick Airport (EGKK) |
| Time | Latitude | Longitude | Altitude | Speed | Heading |
|---|---|---|---|---|---|
| 2026-05-06 08:22 | 54.61436 | -5.87225 | 8 ft | 0 kts | 125° |
| 2026-05-06 08:26 | 54.61440 | -5.87237 | 9 ft | 2 kts | 114° |
| 2026-05-06 08:26 | 54.61444 | -5.87262 | 9 ft | 2 kts | 92° |
| 2026-05-06 08:26 | 54.61443 | -5.87288 | 9 ft | 2 kts | 72° |
| 2026-05-06 08:26 | 54.61436 | -5.87311 | 9 ft | 2 kts | 53° |
| 2026-05-06 08:27 | 54.61425 | -5.87329 | 9 ft | 2 kts | 33° |
| 2026-05-06 08:27 | 54.61413 | -5.87342 | 9 ft | 1 kts | 33° |
| 2026-05-06 08:27 | 54.61411 | -5.87344 | 9 ft | 0 kts | 34° |
| 2026-05-06 08:32 | 54.61415 | -5.87340 | 9 ft | 1 kts | 34° |
| 2026-05-06 08:32 | 54.61431 | -5.87321 | 9 ft | 3 kts | 34° |
| 2026-05-06 08:33 | 54.61454 | -5.87294 | 9 ft | 4 kts | 34° |
| 2026-05-06 08:33 | 54.61499 | -5.87240 | 9 ft | 12 kts | 35° |
| 2026-05-06 08:33 | 54.61569 | -5.87155 | 9 ft | 12 kts | 35° |
| 2026-05-06 08:33 | 54.61642 | -5.87069 | 9 ft | 13 kts | 33° |
| 2026-05-06 08:34 | 54.61725 | -5.87001 | 10 ft | 13 kts | 12° |
| 2026-05-06 08:34 | 54.61797 | -5.87085 | 11 ft | 0 kts | 304° |
| 2026-05-06 08:34 | 54.61799 | -5.87089 | 11 ft | 2 kts | 304° |
| 2026-05-06 08:35 | 54.61820 | -5.87145 | 12 ft | 8 kts | 304° |
| 2026-05-06 08:35 | 54.61894 | -5.87161 | 13 ft | 15 kts | 25° |
| 2026-05-06 08:35 | 54.62012 | -5.87025 | 10 ft | 25 kts | 36° |
| 2026-05-06 08:35 | 54.62175 | -5.86832 | 10 ft | 29 kts | 33° |
| 2026-05-06 08:36 | 54.62337 | -5.86641 | 13 ft | 25 kts | 35° |
| 2026-05-06 08:36 | 54.62445 | -5.86521 | 13 ft | 13 kts | 87° |
| 2026-05-06 08:36 | 54.62400 | -5.86535 | 13 ft | 8 kts | 223° |
| 2026-05-06 08:36 | 54.62356 | -5.86597 | 13 ft | 0 kts | 213° |
| 2026-05-06 08:37 | 54.62353 | -5.86601 | 13 ft | 0 kts | 213° |
| 2026-05-06 08:37 | 54.62316 | -5.86642 | 13 ft | 37 kts | 212° |
| 2026-05-06 08:37 | 54.61798 | -5.87257 | 12 ft | 139 kts | 216° |
| 2026-05-06 08:37 | 54.60856 | -5.88480 | 373 ft | 190 kts | 214° |
| 2026-05-06 08:38 | 54.59712 | -5.89613 | 1600 ft | 200 kts | 200° |
| 2026-05-06 08:38 | 54.58231 | -5.90147 | 1854 ft | 246 kts | 178° |
| 2026-05-06 08:38 | 54.56523 | -5.89294 | 2613 ft | 266 kts | 151° |
| 2026-05-06 08:38 | 54.54942 | -5.87827 | 4132 ft | 259 kts | 153° |
| 2026-05-06 08:39 | 54.53335 | -5.86604 | 5366 ft | 262 kts | 155° |
| 2026-05-06 08:39 | 54.51698 | -5.85229 | 6538 ft | 267 kts | 150° |
| 2026-05-06 08:39 | 54.50214 | -5.83297 | 7594 ft | 275 kts | 131° |
| 2026-05-06 08:39 | 54.49104 | -5.80697 | 8641 ft | 281 kts | 122° |
| 2026-05-06 08:40 | 54.48064 | -5.77806 | 9656 ft | 289 kts | 121° |
| 2026-05-06 08:40 | 54.46983 | -5.74858 | 10592 ft | 300 kts | 122° |
| 2026-05-06 08:40 | 54.45797 | -5.71778 | 11314 ft | 317 kts | 124° |
| 2026-05-06 08:40 | 54.44532 | -5.68612 | 11976 ft | 335 kts | 124° |
| 2026-05-06 08:41 | 54.43174 | -5.65262 | 12616 ft | 353 kts | 125° |
| 2026-05-06 08:41 | 54.41725 | -5.61695 | 13304 ft | 368 kts | 125° |
| 2026-05-06 08:41 | 54.40258 | -5.58083 | 14250 ft | 374 kts | 125° |
| 2026-05-06 08:41 | 54.38694 | -5.54226 | 15238 ft | 378 kts | 125° |
| 2026-05-06 08:42 | 54.37181 | -5.50497 | 15722 ft | 386 kts | 125° |
| 2026-05-06 08:42 | 54.35619 | -5.46645 | 16721 ft | 389 kts | 125° |
| 2026-05-06 08:42 | 54.34088 | -5.42877 | 17637 ft | 393 kts | 125° |
| 2026-05-06 08:42 | 54.32495 | -5.38961 | 18510 ft | 398 kts | 125° |
| 2026-05-06 08:43 | 54.30820 | -5.34851 | 19392 ft | 404 kts | 126° |
| 2026-05-06 08:43 | 54.29118 | -5.30682 | 20249 ft | 409 kts | 126° |
| 2026-05-06 08:43 | 54.27394 | -5.26489 | 21079 ft | 415 kts | 127° |
| 2026-05-06 08:43 | 54.25564 | -5.22365 | 21908 ft | 419 kts | 130° |
| 2026-05-06 08:44 | 54.23649 | -5.18345 | 22671 ft | 424 kts | 131° |
| 2026-05-06 08:44 | 54.23581 | -5.18206 | 22696 ft | 424 kts | 131° |
| 2026-05-06 08:44 | 54.23180 | -5.17384 | 22846 ft | 425 kts | 131° |
| 2026-05-06 08:44 | 54.21214 | -5.13389 | 23578 ft | 430 kts | 131° |
| 2026-05-06 08:45 | 54.19282 | -5.09477 | 24291 ft | 435 kts | 131° |
| 2026-05-06 08:45 | 54.17328 | -5.05514 | 24969 ft | 439 kts | 131° |
| 2026-05-06 08:45 | 54.15372 | -5.01533 | 25668 ft | 443 kts | 131° |
| 2026-05-06 08:45 | 54.13399 | -4.97502 | 26346 ft | 447 kts | 131° |
| 2026-05-06 08:46 | 54.11389 | -4.93391 | 27015 ft | 451 kts | 131° |
| 2026-05-06 08:46 | 54.09403 | -4.89319 | 27627 ft | 456 kts | 131° |
| 2026-05-06 08:46 | 54.07389 | -4.85192 | 28274 ft | 459 kts | 131° |
| 2026-05-06 08:46 | 54.05326 | -4.80967 | 28867 ft | 464 kts | 131° |
| 2026-05-06 08:47 | 54.03483 | -4.77161 | 29672 ft | 461 kts | 130° |